createdAt,value
2023-08-01T00:01:56.514Z,17.20
2023-08-01T00:04:19.690Z,17.30
2023-08-01T00:06:49.323Z,17.30
2023-08-01T00:09:37.237Z,17.30
2023-08-01T00:12:40.374Z,17.30
2023-08-01T00:15:24.032Z,17.20
2023-08-01T00:17:50.387Z,17.20
2023-08-01T00:20:24.555Z,17.20
2023-08-01T00:23:00.156Z,17.20
2023-08-01T00:25:41.131Z,17.20
2023-08-01T00:28:30.199Z,17.20
2023-08-01T00:31:19.851Z,17.20
2023-08-01T00:34:08.377Z,17.10
2023-08-01T00:36:49.287Z,17.00
2023-08-01T00:39:36.663Z,17.10
2023-08-01T00:42:05.641Z,17.10
2023-08-01T00:44:44.896Z,17.10
2023-08-01T00:47:23.239Z,17.10
2023-08-01T00:50:00.187Z,17.10
2023-08-01T00:52:39.206Z,17.10
2023-08-01T00:55:30.778Z,17.10
2023-08-01T01:01:05.479Z,17.00
2023-08-01T01:03:36.031Z,17.00
2023-08-01T01:06:22.783Z,17.10
2023-08-01T01:08:59.862Z,17.00
2023-08-01T01:11:46.367Z,17.00
2023-08-01T01:14:21.016Z,17.10
2023-08-01T01:17:10.135Z,17.10
2023-08-01T01:20:04.657Z,17.10
2023-08-01T01:22:44.735Z,17.10
2023-08-01T01:25:28.241Z,17.10
2023-08-01T01:28:15.783Z,17.00
2023-08-01T01:30:52.281Z,17.10
2023-08-01T01:33:38.301Z,17.10
2023-08-01T01:36:36.344Z,17.10
2023-08-01T01:39:33.571Z,17.10
2023-08-01T01:42:15.457Z,17.10
2023-08-01T01:45:02.172Z,17.10
2023-08-01T01:47:44.728Z,17.20
2023-08-01T01:50:27.170Z,17.10
2023-08-01T01:52:50.440Z,17.20
2023-08-01T01:55:15.306Z,17.00
2023-08-01T01:57:39.090Z,17.00
2023-08-01T02:00:03.311Z,16.90
2023-08-01T02:02:36.077Z,17.00
2023-08-01T02:04:59.417Z,16.90
2023-08-01T02:07:22.626Z,16.80
2023-08-01T02:09:47.292Z,16.90
2023-08-01T02:12:14.923Z,16.70
2023-08-01T02:14:38.237Z,16.60
2023-08-01T02:17:01.464Z,16.60
2023-08-01T02:19:24.656Z,16.60
2023-08-01T02:21:48.348Z,16.50
2023-08-01T02:24:12.494Z,16.50
2023-08-01T02:26:35.720Z,16.50
2023-08-01T02:29:00.348Z,16.50
2023-08-01T02:31:23.567Z,16.40
2023-08-01T02:33:46.847Z,16.30
2023-08-01T02:36:10.129Z,16.30
2023-08-01T02:38:33.380Z,16.30
2023-08-01T02:40:56.648Z,16.30
2023-08-01T02:43:19.824Z,16.20
2023-08-01T02:45:45.524Z,16.20
2023-08-01T02:48:08.792Z,16.20
2023-08-01T02:50:32.036Z,16.20
2023-08-01T02:52:55.316Z,16.20
2023-08-01T02:55:18.640Z,16.20
2023-08-01T02:57:41.979Z,16.20
2023-08-01T03:00:07.050Z,16.10
2023-08-01T03:02:32.284Z,16.20
2023-08-01T03:04:55.826Z,16.10
2023-08-01T03:07:19.058Z,16.20
2023-08-01T03:09:43.889Z,16.10
2023-08-01T03:12:07.847Z,16.00
2023-08-01T03:14:31.155Z,15.90
2023-08-01T03:16:54.356Z,16.00
2023-08-01T03:19:19.216Z,15.90
2023-08-01T03:21:42.493Z,15.90
2023-08-01T03:24:09.597Z,15.80
2023-08-01T03:26:32.931Z,15.80
2023-08-01T03:28:56.263Z,15.80
2023-08-01T03:31:19.509Z,15.80
2023-08-01T03:33:43.637Z,15.80
2023-08-01T03:36:08.281Z,15.80
2023-08-01T03:38:31.557Z,15.80
2023-08-01T03:40:54.952Z,15.70
2023-08-01T03:43:19.161Z,15.80
2023-08-01T03:45:42.461Z,15.70
2023-08-01T03:48:06.593Z,15.70
2023-08-01T03:50:29.916Z,15.70
2023-08-01T03:52:54.717Z,15.70
2023-08-01T03:55:18.136Z,15.70
2023-08-01T03:57:41.340Z,15.70
2023-08-01T04:00:05.519Z,15.60
2023-08-01T04:02:35.832Z,15.60
2023-08-01T04:04:59.147Z,15.60
2023-08-01T04:07:22.337Z,15.70
2023-08-01T04:09:47.195Z,15.70
2023-08-01T04:12:10.731Z,15.70
2023-08-01T04:14:33.970Z,15.60
2023-08-01T04:16:57.159Z,15.70
2023-08-01T04:19:20.669Z,15.60
2023-08-01T04:21:44.447Z,15.60
2023-08-01T04:24:07.755Z,15.70
2023-08-01T04:26:32.641Z,15.60
2023-08-01T04:28:55.908Z,15.70
2023-08-01T04:31:19.185Z,15.60
2023-08-01T04:33:42.484Z,15.60
2023-08-01T04:36:06.146Z,15.60
2023-08-01T04:38:29.357Z,15.60
2023-08-01T04:40:52.583Z,15.60
2023-08-01T04:43:17.211Z,15.50
2023-08-01T04:45:40.538Z,15.50
2023-08-01T04:48:03.891Z,15.50
2023-08-01T04:50:27.173Z,15.50
2023-08-01T04:52:50.360Z,15.50
2023-08-01T04:55:13.697Z,15.50
2023-08-01T04:57:36.951Z,15.50
2023-08-01T05:00:01.682Z,15.50
2023-08-01T05:02:24.932Z,15.50
2023-08-01T05:04:48.117Z,15.50
2023-08-01T05:07:11.344Z,15.50
2023-08-01T05:09:34.949Z,15.50
2023-08-01T05:11:59.198Z,15.60
2023-08-01T05:14:22.423Z,15.50
2023-08-01T05:16:47.617Z,15.60
2023-08-01T05:19:10.913Z,15.60
2023-08-01T05:21:34.142Z,15.60
2023-08-01T05:23:57.307Z,15.70
2023-08-01T05:26:20.557Z,15.70
2023-08-01T05:28:43.820Z,15.70
2023-08-01T05:31:07.086Z,15.70
2023-08-01T05:33:32.517Z,15.70
2023-08-01T05:35:55.674Z,15.60
2023-08-01T05:38:18.965Z,15.70
2023-08-01T05:40:42.148Z,15.70
2023-08-01T05:43:06.292Z,15.70
2023-08-01T05:45:29.762Z,15.70
2023-08-01T05:47:53.044Z,15.70
2023-08-01T05:50:17.591Z,15.80
2023-08-01T05:52:40.785Z,15.80
2023-08-01T05:55:04.020Z,15.90
2023-08-01T05:57:27.491Z,15.90
2023-08-01T05:59:50.692Z,16.00
2023-08-01T06:02:13.957Z,16.00
2023-08-01T06:04:37.366Z,16.00
2023-08-01T06:07:02.057Z,15.90
2023-08-01T06:09:25.329Z,16.00
2023-08-01T06:11:48.798Z,15.90
2023-08-01T06:14:12.148Z,16.00
2023-08-01T06:16:35.384Z,16.00
2023-08-01T06:18:58.711Z,16.00
2023-08-01T06:21:21.945Z,16.00
2023-08-01T06:23:46.524Z,16.00
2023-08-01T06:26:09.702Z,15.90
2023-08-01T06:28:33.094Z,15.90
2023-08-01T06:30:56.325Z,15.90
2023-08-01T06:33:19.536Z,15.90
2023-08-01T06:35:42.851Z,16.00
2023-08-01T06:38:06.061Z,16.00
2023-08-01T06:40:30.716Z,16.10
2023-08-01T06:42:53.905Z,16.00
2023-08-01T06:45:17.694Z,16.00
2023-08-01T06:47:40.843Z,16.00
2023-08-01T06:50:04.079Z,16.10
2023-08-01T06:52:27.319Z,16.10
2023-08-01T06:54:50.537Z,16.20
2023-08-01T06:57:15.131Z,16.20
2023-08-01T06:59:38.425Z,16.10
2023-08-01T07:02:02.626Z,16.20
2023-08-01T07:04:25.989Z,16.20
2023-08-01T07:06:49.264Z,16.20
2023-08-01T07:09:12.423Z,16.30
2023-08-01T07:11:35.806Z,16.30
2023-08-01T07:14:00.524Z,16.30
2023-08-01T07:16:23.989Z,16.40
2023-08-01T07:18:49.238Z,16.50
2023-08-01T07:21:12.488Z,16.40
2023-08-01T07:23:37.225Z,16.40
2023-08-01T07:26:00.472Z,16.40
2023-08-01T07:28:23.937Z,16.40
2023-08-01T07:30:48.504Z,16.50
2023-08-01T07:33:12.088Z,16.50
2023-08-01T07:35:35.309Z,16.50
2023-08-01T07:37:58.513Z,16.50
2023-08-01T07:40:21.684Z,16.50
2023-08-01T07:42:44.870Z,16.50
2023-08-01T07:45:09.507Z,16.50
2023-08-01T07:47:34.223Z,16.60
2023-08-01T07:49:57.672Z,16.60
2023-08-01T07:52:20.908Z,16.70
2023-08-01T07:54:44.326Z,17.00
2023-08-01T07:57:08.375Z,17.20
2023-08-01T07:59:31.600Z,17.50
2023-08-01T08:01:54.983Z,17.50
2023-08-01T08:04:19.607Z,17.40
2023-08-01T08:06:43.346Z,17.40
2023-08-01T08:09:06.797Z,17.40
2023-08-01T08:11:29.928Z,17.20
2023-08-01T08:13:53.115Z,17.30
2023-08-01T08:16:16.550Z,17.20
2023-08-01T08:18:39.840Z,17.10
2023-08-01T08:21:04.388Z,17.30
2023-08-01T08:23:27.703Z,17.60
2023-08-01T08:25:51.299Z,17.50
2023-08-01T08:28:15.530Z,17.50
2023-08-01T08:30:38.951Z,17.60
2023-08-01T08:33:05.562Z,17.50
2023-08-01T08:35:29.265Z,17.30
2023-08-01T08:37:53.865Z,17.50
2023-08-01T08:40:17.124Z,17.50
2023-08-01T08:42:41.717Z,17.60
2023-08-01T08:45:08.493Z,17.90
2023-08-01T08:47:33.745Z,18.00
2023-08-01T08:49:58.958Z,18.10
2023-08-01T08:52:22.815Z,18.20
2023-08-01T08:54:48.512Z,18.10
2023-08-01T08:57:12.343Z,18.60
2023-08-01T08:59:36.411Z,18.50
2023-08-01T09:02:02.096Z,18.50
2023-08-01T09:04:25.333Z,18.70
2023-08-01T09:06:52.106Z,18.40
2023-08-01T09:09:16.582Z,18.20
2023-08-01T09:11:48.554Z,18.40
2023-08-01T09:14:12.426Z,18.50
2023-08-01T09:16:36.148Z,18.80
2023-08-01T09:18:59.369Z,18.90
2023-08-01T09:21:23.500Z,18.70
2023-08-01T09:23:46.677Z,18.20
2023-08-01T09:26:15.652Z,18.00
2023-08-01T09:28:40.229Z,18.00
2023-08-01T09:31:03.546Z,18.40
2023-08-01T09:33:27.060Z,18.50
2023-08-01T09:35:52.498Z,18.80
2023-08-01T09:38:17.372Z,19.00
2023-08-01T09:40:41.572Z,18.90
2023-08-01T09:43:05.043Z,19.00
2023-08-01T09:45:29.577Z,19.00
2023-08-01T09:47:52.793Z,18.90
2023-08-01T09:50:23.905Z,18.80
2023-08-01T09:52:53.227Z,18.50
2023-08-01T09:55:16.564Z,18.40
2023-08-01T09:57:43.561Z,18.30
2023-08-01T10:00:10.248Z,18.30
2023-08-01T10:02:39.360Z,18.40
2023-08-01T10:05:03.851Z,18.60
2023-08-01T10:07:32.044Z,19.00
2023-08-01T10:09:57.254Z,19.10
2023-08-01T10:12:20.765Z,19.10
2023-08-01T10:14:44.483Z,18.90
2023-08-01T10:17:08.728Z,18.90
2023-08-01T10:19:35.009Z,18.70
2023-08-01T10:21:58.465Z,18.70
2023-08-01T10:24:22.232Z,18.70
2023-08-01T10:26:47.632Z,18.50
2023-08-01T10:29:10.904Z,18.20
2023-08-01T10:31:34.606Z,18.10
2023-08-01T10:34:07.917Z,18.10
2023-08-01T10:36:34.035Z,18.00
2023-08-01T10:38:59.727Z,17.90
2023-08-01T10:41:28.165Z,17.70
2023-08-01T10:43:51.563Z,17.50
2023-08-01T10:46:14.981Z,18.10
2023-08-01T10:48:50.058Z,18.20
2023-08-01T10:51:13.212Z,18.80
2023-08-01T10:53:43.361Z,18.90
2023-08-01T10:56:06.799Z,19.00
2023-08-01T10:58:31.089Z,19.10
2023-08-01T11:01:00.420Z,18.80
2023-08-01T11:03:23.987Z,19.10
2023-08-01T11:05:59.423Z,19.20
2023-08-01T11:08:22.638Z,19.10
2023-08-01T11:10:52.096Z,18.90
2023-08-01T11:13:15.355Z,18.70
2023-08-01T11:15:39.960Z,18.80
2023-08-01T11:18:04.565Z,18.50
2023-08-01T11:20:29.898Z,18.50
2023-08-01T11:22:58.220Z,18.50
2023-08-01T11:25:22.096Z,18.70
2023-08-01T11:27:46.756Z,19.20
2023-08-01T11:30:10.692Z,19.60
2023-08-01T11:32:39.458Z,19.30
2023-08-01T11:35:03.029Z,19.00
2023-08-01T11:37:28.896Z,18.90
2023-08-01T11:39:52.995Z,18.80
2023-08-01T11:42:18.364Z,18.90
2023-08-01T11:44:42.902Z,18.80
2023-08-01T11:47:14.475Z,18.90
2023-08-01T11:49:37.757Z,18.90
2023-08-01T11:52:00.990Z,18.90
2023-08-01T11:54:24.179Z,18.90
2023-08-01T11:56:47.423Z,18.90
2023-08-01T11:59:12.023Z,18.60
2023-08-01T12:01:41.288Z,18.60
2023-08-01T12:04:04.557Z,18.50
2023-08-01T12:06:27.896Z,18.50
2023-08-01T12:08:53.795Z,18.70
2023-08-01T12:11:23.798Z,18.60
2023-08-01T12:13:47.221Z,18.50
2023-08-01T12:16:10.455Z,18.20
2023-08-01T12:21:01.260Z,18.10
2023-08-01T12:23:24.519Z,18.10
2023-08-01T12:25:48.516Z,18.30
2023-08-01T12:28:11.779Z,18.50
2023-08-01T12:30:35.051Z,18.50
2023-08-01T12:32:58.354Z,18.80
2023-08-01T12:35:23.241Z,19.40
2023-08-01T12:37:46.454Z,19.80
2023-08-01T12:40:10.214Z,20.10
2023-08-01T12:42:33.400Z,20.30
2023-08-01T12:44:56.605Z,20.40
2023-08-01T12:47:19.879Z,20.50
2023-08-01T12:49:43.114Z,20.40
2023-08-01T12:52:08.504Z,20.80
2023-08-01T12:54:31.724Z,20.80
2023-08-01T12:56:55.180Z,20.70
2023-08-01T12:59:18.749Z,20.40
2023-08-01T13:01:41.956Z,20.50
2023-08-01T13:04:06.501Z,20.80
2023-08-01T13:06:29.869Z,21.00
2023-08-01T13:08:54.713Z,20.90
2023-08-01T13:11:18.094Z,20.60
2023-08-01T13:13:42.154Z,20.80
2023-08-01T13:16:06.207Z,21.10
2023-08-01T13:18:29.410Z,21.30
2023-08-01T13:20:52.649Z,21.30
2023-08-01T13:23:15.818Z,20.50
2023-08-01T13:25:40.391Z,20.00
2023-08-01T13:28:03.736Z,20.10
2023-08-01T13:30:27.104Z,20.10
2023-08-01T13:32:50.359Z,20.20
2023-08-01T13:35:13.726Z,20.50
2023-08-01T13:37:37.120Z,20.50
2023-08-01T13:40:02.981Z,20.60
2023-08-01T13:42:27.742Z,20.80
2023-08-01T13:44:51.437Z,21.20
2023-08-01T13:47:14.741Z,21.50
2023-08-01T13:49:38.154Z,21.50
2023-08-01T13:52:01.368Z,21.40
2023-08-01T13:54:24.587Z,21.50
2023-08-01T13:56:47.899Z,21.60
2023-08-01T13:59:12.480Z,22.00
2023-08-01T14:01:36.811Z,21.80
2023-08-01T14:04:00.037Z,22.00
2023-08-01T14:06:23.520Z,21.60
2023-08-01T14:08:46.948Z,21.40
2023-08-01T14:11:11.876Z,21.20
2023-08-01T14:13:35.987Z,21.10
2023-08-01T14:16:00.771Z,21.30
2023-08-01T14:18:24.402Z,21.50
2023-08-01T14:20:47.646Z,21.60
2023-08-01T14:23:10.940Z,21.80
2023-08-01T14:25:34.207Z,21.80
2023-08-01T14:27:57.403Z,21.60
2023-08-01T14:30:21.270Z,21.60
2023-08-01T14:32:45.929Z,21.80
2023-08-01T14:35:10.859Z,22.00
2023-08-01T14:37:34.134Z,22.20
2023-08-01T14:39:57.533Z,22.30
2023-08-01T14:42:21.032Z,22.40
2023-08-01T14:44:44.198Z,22.00
2023-08-01T14:47:07.846Z,21.80
2023-08-01T14:49:32.900Z,21.80
2023-08-01T14:51:56.062Z,21.80
2023-08-01T14:54:33.440Z,21.80
2023-08-01T14:57:03.171Z,22.40
2023-08-01T14:59:26.344Z,22.10
2023-08-01T15:01:49.576Z,22.50
2023-08-01T15:04:13.035Z,22.80
2023-08-01T15:06:37.674Z,22.00
2023-08-01T15:09:01.277Z,21.50
2023-08-01T15:11:24.596Z,21.40
2023-08-01T15:13:47.776Z,21.10
2023-08-01T15:16:12.866Z,21.00
2023-08-01T15:18:36.223Z,20.80
2023-08-01T15:20:59.440Z,20.70
2023-08-01T15:23:24.154Z,21.30
2023-08-01T15:25:55.282Z,21.70
2023-08-01T15:28:18.591Z,21.70
2023-08-01T15:30:41.837Z,21.30
2023-08-01T15:33:05.099Z,21.70
2023-08-01T15:35:31.445Z,21.80
2023-08-01T15:37:54.768Z,21.60
2023-08-01T15:40:19.593Z,21.60
2023-08-01T15:42:42.802Z,21.60
2023-08-01T15:45:07.450Z,21.40
2023-08-01T15:47:30.800Z,21.60
2023-08-01T15:49:54.370Z,21.60
2023-08-01T15:52:17.570Z,21.20
2023-08-01T15:54:40.753Z,21.50
2023-08-01T15:57:05.885Z,21.60
2023-08-01T15:59:29.113Z,22.10
2023-08-01T16:01:52.272Z,21.80
2023-08-01T16:04:15.526Z,21.30
2023-08-01T16:06:38.761Z,21.50
2023-08-01T16:09:01.975Z,21.60
2023-08-01T16:11:25.398Z,22.00
2023-08-01T16:13:50.071Z,21.50
2023-08-01T16:16:13.343Z,21.60
2023-08-01T16:18:36.630Z,21.50
2023-08-01T16:20:59.890Z,21.60
2023-08-01T16:23:23.322Z,21.40
2023-08-01T16:25:46.576Z,21.40
2023-08-01T16:28:10.060Z,21.30
2023-08-01T16:30:35.036Z,21.40
2023-08-01T16:32:59.011Z,21.40
2023-08-01T16:47:44.103Z,21.40
2023-08-01T16:50:16.153Z,21.00
2023-08-01T16:52:39.351Z,20.80
2023-08-01T16:55:02.543Z,20.80
2023-08-01T16:57:25.838Z,20.90
2023-08-01T16:59:49.063Z,20.80
2023-08-01T17:02:16.048Z,20.70
2023-08-01T17:04:41.237Z,20.60
2023-08-01T17:07:04.634Z,20.80
2023-08-01T17:09:27.821Z,20.80
2023-08-01T17:11:50.996Z,20.70
2023-08-01T17:14:14.246Z,20.80
2023-08-01T17:16:37.561Z,20.60
2023-08-01T17:19:00.850Z,20.50
2023-08-01T17:21:25.447Z,20.50
2023-08-01T17:23:48.665Z,20.20
2023-08-01T17:26:11.895Z,20.00
2023-08-01T17:28:35.090Z,20.10
2023-08-01T17:31:05.346Z,20.10
2023-08-01T17:33:28.653Z,20.30
2023-08-01T17:35:51.877Z,20.40
2023-08-01T17:38:16.452Z,20.30
2023-08-01T17:40:44.847Z,20.20
2023-08-01T17:43:08.029Z,20.10
2023-08-01T17:45:31.229Z,20.10
2023-08-01T17:47:55.000Z,20.10
2023-08-01T17:50:18.368Z,20.10
2023-08-01T17:52:42.329Z,20.00
2023-08-01T17:55:08.649Z,20.10
2023-08-01T17:57:31.896Z,20.00
2023-08-01T17:59:55.166Z,20.00
2023-08-01T18:02:18.413Z,20.00
2023-08-01T18:04:45.708Z,19.90
2023-08-01T18:07:08.962Z,19.80
2023-08-01T18:09:32.328Z,19.80
2023-08-01T18:11:57.551Z,19.70
2023-08-01T18:14:21.048Z,19.60
2023-08-01T18:16:45.340Z,19.50
2023-08-01T18:19:08.819Z,19.50
2023-08-01T18:21:32.085Z,19.50
2023-08-01T18:23:55.537Z,19.30
2023-08-01T18:26:21.089Z,19.20
2023-08-01T18:28:45.676Z,19.30
2023-08-01T18:31:09.616Z,19.30
2023-08-01T18:33:32.857Z,19.20
2023-08-01T18:35:56.053Z,19.20
2023-08-01T18:38:19.203Z,19.20
2023-08-01T18:40:42.457Z,19.10
2023-08-01T18:43:05.745Z,19.10
2023-08-01T18:45:30.375Z,19.00
2023-08-01T18:47:54.655Z,19.10
2023-08-01T18:50:18.178Z,19.00
2023-08-01T18:52:42.620Z,19.00
2023-08-01T18:55:06.613Z,19.00
2023-08-01T18:57:29.866Z,18.90
2023-08-01T18:59:53.306Z,18.90
2023-08-01T19:02:17.958Z,18.90
2023-08-01T19:04:41.367Z,18.80
2023-08-01T19:07:04.874Z,18.90
2023-08-01T19:09:28.593Z,18.90
2023-08-01T19:11:51.803Z,18.80
2023-08-01T19:14:15.058Z,18.80
2023-08-01T19:16:38.438Z,18.80
2023-08-01T19:19:03.105Z,18.80
2023-08-01T19:21:26.266Z,18.80
2023-08-01T19:23:49.512Z,18.80
2023-08-01T19:26:13.334Z,18.70
2023-08-01T19:28:36.602Z,18.70
2023-08-01T19:30:59.819Z,18.70
2023-08-01T19:33:23.033Z,18.70
2023-08-01T19:35:48.273Z,18.70
2023-08-01T19:38:12.010Z,18.60
2023-08-01T19:40:35.235Z,18.60
2023-08-01T19:42:58.489Z,18.50
2023-08-01T19:45:21.792Z,18.60
2023-08-01T19:47:45.298Z,18.50
2023-08-01T19:50:09.829Z,18.60
2023-08-01T19:52:34.849Z,18.50
2023-08-01T19:54:58.282Z,18.50
2023-08-01T19:57:21.491Z,18.40
2023-08-01T19:59:44.654Z,18.40
2023-08-01T20:02:08.671Z,18.40
2023-08-01T20:04:32.040Z,18.30
2023-08-01T20:06:55.390Z,18.30
2023-08-01T20:09:20.178Z,18.30
2023-08-01T20:11:43.496Z,18.20
2023-08-01T20:14:06.788Z,18.20
2023-08-01T20:16:30.105Z,18.10
2023-08-01T20:18:53.258Z,18.10
2023-08-01T20:21:16.420Z,18.10
2023-08-01T20:23:39.659Z,18.10
2023-08-01T20:26:04.245Z,18.00
2023-08-01T20:28:27.408Z,18.00
2023-08-01T20:30:51.005Z,18.00
2023-08-01T20:33:14.263Z,18.00
2023-08-01T20:35:37.578Z,18.00
2023-08-01T20:38:00.784Z,17.80
2023-08-01T20:40:24.061Z,17.70
2023-08-01T20:42:49.463Z,17.70
2023-08-01T20:45:13.519Z,17.70
2023-08-01T20:47:36.713Z,17.70
2023-08-01T20:50:02.036Z,17.70
2023-08-01T20:52:25.300Z,17.80
2023-08-01T20:54:48.516Z,17.70
2023-08-01T20:57:11.787Z,17.70
2023-08-01T20:59:36.381Z,17.80
2023-08-01T21:02:01.476Z,17.70
2023-08-01T21:04:24.260Z,17.60
2023-08-01T21:06:47.560Z,17.50
2023-08-01T21:09:10.811Z,17.60
2023-08-01T21:11:34.224Z,17.50
2023-08-01T21:13:57.504Z,17.50
2023-08-01T21:16:22.949Z,17.50
2023-08-01T21:18:46.708Z,17.50
2023-08-01T21:21:10.594Z,17.50
2023-08-01T21:23:33.747Z,17.50
2023-08-01T21:25:56.971Z,17.50
2023-08-01T21:28:20.134Z,17.40
2023-08-01T21:30:43.334Z,17.40
2023-08-01T21:33:07.961Z,17.40
2023-08-01T21:35:31.166Z,17.30
2023-08-01T21:37:54.358Z,17.30
2023-08-01T21:40:17.768Z,17.30
2023-08-01T21:42:41.230Z,17.20
2023-08-01T21:45:04.792Z,17.20
2023-08-01T21:47:28.069Z,17.20
2023-08-01T21:49:52.654Z,17.10
2023-08-01T21:52:15.889Z,17.10
2023-08-01T21:54:39.077Z,17.10
2023-08-01T21:57:02.605Z,17.10
2023-08-01T21:59:25.806Z,17.10
2023-08-01T22:01:49.151Z,17.10
2023-08-01T22:04:14.833Z,17.10
2023-08-01T22:06:40.030Z,17.00
2023-08-01T22:09:03.527Z,17.00
2023-08-01T22:11:26.756Z,17.00
2023-08-01T22:13:49.949Z,17.00
2023-08-01T22:16:13.206Z,17.00
2023-08-01T22:18:36.485Z,16.90
2023-08-01T22:20:59.779Z,16.90
2023-08-01T22:23:24.959Z,17.00
2023-08-01T22:25:48.850Z,17.10
2023-08-01T22:28:12.079Z,17.00
2023-08-01T22:30:36.534Z,16.90
2023-08-01T22:33:00.179Z,16.90
2023-08-01T22:35:23.397Z,16.90
2023-08-01T22:37:46.927Z,16.90
2023-08-01T22:40:12.440Z,16.90
2023-08-01T22:42:35.613Z,16.80
2023-08-01T22:44:59.998Z,16.90
2023-08-01T22:47:23.321Z,16.80
2023-08-01T22:49:59.080Z,16.80
2023-08-01T22:52:22.971Z,16.80
2023-08-01T22:54:46.301Z,16.80
2023-08-01T22:57:10.855Z,16.70
2023-08-01T22:59:34.028Z,16.80
2023-08-01T23:01:58.376Z,16.70
2023-08-01T23:04:21.563Z,16.80
2023-08-01T23:06:45.336Z,16.80
2023-08-01T23:09:08.835Z,16.80
2023-08-01T23:11:32.148Z,16.80
2023-08-01T23:13:56.648Z,16.70
2023-08-01T23:16:19.950Z,16.70
2023-08-01T23:18:43.248Z,16.70
2023-08-01T23:21:06.550Z,16.70
2023-08-01T23:23:29.741Z,16.60
2023-08-01T23:26:02.528Z,16.60
2023-08-01T23:28:25.825Z,16.60
2023-08-01T23:30:53.776Z,16.50
2023-08-01T23:33:17.201Z,16.60
2023-08-01T23:35:40.528Z,16.50
2023-08-01T23:38:03.765Z,16.50
2023-08-01T23:40:29.146Z,16.50
2023-08-01T23:42:52.910Z,16.50
2023-08-01T23:45:16.269Z,16.40
2023-08-01T23:47:40.921Z,16.50
2023-08-01T23:50:04.529Z,16.50
2023-08-01T23:52:27.785Z,16.40
2023-08-01T23:54:50.979Z,16.40
2023-08-01T23:57:14.259Z,16.30
2023-08-01T23:59:37.429Z,16.30
